PWSweather.com
Personal Weather Stations
Station Observations
WISCHPK61
Green Bay Schmitt Park, Green Bay, WI 54311

Green Bay Schmitt ParkGreen Bay, WI 54311

Lat: 44.514277, Lon: -87.935067

Elevation: 735

Station Type: Acu Rite Pro Weather Center model 02032C

http://greenbayweathercam.com

High Low Average
Temperature 50.4°F10.2°C 32.0°F0.0°C 39.4°F4.1°C
Dew Point 50.1°F10.1°C 31.8°F-0.1°C 39.1°F3.9°C
Winds 3.5 mph 5.6 kmh Calm Calm 1.0 mph SW1.6 kmh SW
Wind Gusts 5.8 mph9.3 kmh -- 1.0 mph1.6 kmh
Humidity 99% 99% 99%
Pressure 29.25 in990.5 mb 29.09 in985.1 mb -
Precipitation 0.01 in0.3 mm - -
Hour Temp Dew Point Humidity Winds Wind Gusts Pressure Precip Precip Rate Daily Precip Total
12:00 AM 33.3°F0.7°C 33.0°F0.6°C 99% Calm Calm -- 29.24 in990.2 mb - 0.00 in0.0 mm 0.00 in0.0 mm
01:00 AM 32.0°F0.0°C 31.8°F-0.1°C 99% Calm Calm -- 29.25 in990.5 mb - 0.00 in0.0 mm 0.00 in0.0 mm
02:00 AM 32.2°F0.1°C 32.0°F0.0°C 99% Calm Calm -- 29.24 in990.2 mb - 0.00 in0.0 mm 0.00 in0.0 mm
03:00 AM 32.4°F0.2°C 32.2°F0.1°C 99% Calm Calm -- 29.25 in990.5 mb - 0.00 in0.0 mm 0.00 in0.0 mm
04:00 AM 32.5°F0.3°C 32.3°F0.2°C 99% Calm Calm -- 29.24 in990.2 mb - 0.00 in0.0 mm 0.00 in0.0 mm
05:00 AM 32.7°F0.4°C 32.5°F0.3°C 99% Calm Calm -- 29.23 in989.8 mb - 0.00 in0.0 mm 0.00 in0.0 mm
06:00 AM 32.9°F0.5°C 32.7°F0.4°C 99% Calm Calm -- 29.24 in990.2 mb - 0.00 in0.0 mm 0.00 in0.0 mm
07:00 AM 32.9°F0.5°C 32.7°F0.4°C 99% Calm Calm -- 29.24 in990.2 mb - 0.00 in0.0 mm 0.00 in0.0 mm
08:00 AM 33.3°F0.7°C 33.0°F0.6°C 99% Calm Calm -- 29.24 in990.2 mb - 0.00 in0.0 mm 0.00 in0.0 mm
09:00 AM 35.2°F1.8°C 34.9°F1.6°C 99% Calm Calm -- 29.22 in989.5 mb - 0.00 in0.0 mm 0.00 in0.0 mm
10:00 AM 36.3°F2.4°C 36.0°F2.2°C 99% Calm Calm -- 29.22 in989.5 mb - 0.00 in0.0 mm 0.00 in0.0 mm
11:00 AM 41.6°F5.3°C 41.3°F5.2°C 99% Calm Calm -- 29.20 in988.8 mb - 0.00 in0.0 mm 0.00 in0.0 mm
12:00 PM 40.8°F4.9°C 40.6°F4.8°C 99% 2.3 mph SE3.7 kmh SE 5.8 mph9.3 kmh 29.20 in988.8 mb - 0.00 in0.0 mm 0.00 in0.0 mm
01:00 PM 41.7°F5.4°C 41.5°F5.3°C 99% Calm Calm -- 29.18 in988.1 mb - 0.00 in0.0 mm 0.00 in0.0 mm
02:00 PM 48.5°F9.2°C 48.2°F9.0°C 99% Calm Calm 3.5 mph5.6 kmh 29.17 in987.8 mb - 0.00 in0.0 mm 0.00 in0.0 mm
03:00 PM 50.4°F10.2°C 50.1°F10.1°C 99% 1.2 mph NW1.9 kmh NW 3.5 mph5.6 kmh 29.14 in986.8 mb - 0.00 in0.0 mm 0.00 in0.0 mm
04:00 PM 48.7°F9.3°C 48.4°F9.1°C 99% 2.3 mph S3.7 kmh S 4.6 mph7.4 kmh 29.12 in986.1 mb - 0.00 in0.0 mm 0.00 in0.0 mm
05:00 PM 48.2°F9.0°C 47.9°F8.8°C 99% 3.5 mph S5.6 kmh S 5.8 mph9.3 kmh 29.11 in985.8 mb - 0.00 in0.0 mm 0.00 in0.0 mm
06:00 PM 46.1°F7.8°C 45.8°F7.7°C 99% 2.3 mph SE3.7 kmh SE 3.5 mph5.6 kmh 29.09 in985.1 mb - 0.00 in0.0 mm 0.00 in0.0 mm
07:00 PM 43.9°F6.6°C 43.6°F6.4°C 99% Calm Calm -- 29.09 in985.1 mb - 0.00 in0.0 mm 0.00 in0.0 mm
08:00 PM 43.0°F6.1°C 42.7°F5.9°C 99% Calm Calm -- 29.09 in985.1 mb - 0.00 in0.0 mm 0.00 in0.0 mm
09:00 PM 42.8°F6.0°C 42.5°F5.8°C 99% Calm Calm -- 29.10 in985.4 mb - 0.00 in0.0 mm 0.00 in0.0 mm
10:00 PM 41.7°F5.4°C 41.4°F5.2°C 99% Calm Calm -- 29.11 in985.8 mb - 0.00 in0.0 mm 0.00 in0.0 mm
11:00 PM 37.8°F3.2°C 37.5°F3.1°C 99% 1.2 mph W1.9 kmh W 2.3 mph3.7 kmh 29.16 in987.5 mb - 0.01 in0.3 mm 0.01 in0.3 mm